Time;durP1;ratioP1;P1;durP2;ratioP2;P2;SDS_P1;SDS_P2;PMS_P1;PMS_P2;Temp;Humidity;BMP_temperature;BMP_pressure;BME280_temperature;BME280_humidity;BME280_pressure;Samples;Min_cycle;Max_cycle;Signal;HPM_P1;HPM_P2
2021/12/02 00:00:34;;;;;;;2.75;0.90;;;3.40;99.90;;;;;;5047530;28;20053;-69
2021/12/02 00:02:59;;;;;;;2.85;1.75;;;3.40;99.90;;;;;;5048839;28;20092;-69
2021/12/02 00:05:25;;;;;;;7.93;1.48;;;3.40;99.90;;;;;;5050128;28;20045;-68
2021/12/02 00:07:51;;;;;;;8.38;1.05;;;3.30;99.90;;;;;;5048254;28;20084;-68
2021/12/02 00:10:17;;;;;;;3.47;0.93;;;3.20;99.90;;;;;;5051627;28;20439;-69
2021/12/02 00:12:43;;;;;;;4.95;1.15;;;3.20;99.90;;;;;;5058040;28;20127;-68
2021/12/02 00:15:17;;;;;;;6.75;1.77;;;3.20;99.90;;;;;;5064324;28;20098;-68
2021/12/02 00:17:52;;;;;;;7.20;1.17;;;3.20;99.90;;;;;;5050981;28;20136;-69
2021/12/02 00:23:25;;;;;;;2.72;0.90;;;3.20;99.90;;;;;;5071627;28;20562;-68
2021/12/02 00:25:52;;;;;;;4.72;0.60;;;3.20;99.90;;;;;;5072996;28;20052;-69
2021/12/02 00:28:18;;;;;;;1.63;0.93;;;3.20;99.90;;;;;;5071989;28;20049;-69
2021/12/02 00:30:44;;;;;;;3.85;0.60;;;3.20;99.90;;;;;;5070853;28;20051;-69
2021/12/02 00:33:11;;;;;;;15.00;1.27;;;3.10;99.90;;;;;;5071647;28;20056;-69
2021/12/02 00:35:37;;;;;;;5.72;0.98;;;3.10;99.90;;;;;;5071627;28;20052;-69
2021/12/02 00:38:03;;;;;;;1.90;1.02;;;3.10;99.90;;;;;;5072355;28;20097;-68
2021/12/02 00:40:29;;;;;;;14.48;1.45;;;3.10;99.90;;;;;;5071566;28;20056;-70
2021/12/02 00:42:57;;;;;;;2.88;1.20;;;3.20;99.90;;;;;;5071573;28;20083;-68
2021/12/02 00:45:23;;;;;;;5.80;1.45;;;3.30;99.90;;;;;;5071349;28;20056;-68
2021/12/02 00:47:49;;;;;;;2.42;1.00;;;3.30;99.90;;;;;;5072430;28;20494;-69
2021/12/02 00:50:15;;;;;;;7.15;0.90;;;3.30;99.90;;;;;;5072518;28;20545;-69
2021/12/02 00:52:41;;;;;;;2.47;0.47;;;3.30;99.90;;;;;;5071460;28;20131;-68
2021/12/02 00:55:07;;;;;;;2.95;0.65;;;3.30;99.90;;;;;;5072458;28;20056;-68
2021/12/02 00:57:34;;;;;;;3.42;0.20;;;3.30;99.90;;;;;;5070958;28;20492;-68
2021/12/02 01:00:04;;;;;;;2.40;0.50;;;3.30;99.90;;;;;;5070851;28;20494;-68
2021/12/02 01:02:35;;;;;;;1.55;0.40;;;3.40;99.90;;;;;;5072458;28;20082;-69
2021/12/02 01:05:01;;;;;;;0.50;0.20;;;3.40;99.90;;;;;;5072182;28;20045;-69
2021/12/02 01:07:27;;;;;;;1.30;0.30;;;3.50;99.90;;;;;;5072527;28;20049;-68
2021/12/02 01:09:52;;;;;;;4.25;0.60;;;3.60;99.90;;;;;;5072361;28;20399;-68
2021/12/02 01:12:18;;;;;;;2.00;0.75;;;3.70;99.90;;;;;;5071852;28;20040;-68
2021/12/02 01:14:45;;;;;;;1.98;0.80;;;3.60;99.90;;;;;;5070610;28;20529;-68
2021/12/02 01:17:10;;;;;;;0.55;0.55;;;3.60;99.90;;;;;;5072366;28;20508;-68
2021/12/02 01:19:36;;;;;;;0.75;0.32;;;3.60;99.90;;;;;;5069994;28;20084;-69
2021/12/02 01:22:02;;;;;;;0.88;0.80;;;3.60;99.90;;;;;;5070973;28;20048;-68
2021/12/02 01:24:29;;;;;;;2.17;0.70;;;3.50;99.90;;;;;;5070855;28;20106;-68
2021/12/02 01:26:57;;;;;;;9.77;1.33;;;3.50;99.90;;;;;;5071826;28;20049;-68
2021/12/02 01:29:24;;;;;;;6.57;0.88;;;3.40;99.90;;;;;;5070771;28;20098;-68
2021/12/02 01:31:52;;;;;;;3.83;0.95;;;3.50;99.90;;;;;;5070387;28;20475;-68
2021/12/02 01:34:24;;;;;;;3.95;0.70;;;3.50;99.90;;;;;;5070204;28;20040;-69
2021/12/02 01:36:52;;;;;;;1.05;0.65;;;3.50;99.90;;;;;;5070280;28;20483;-69
2021/12/02 01:39:17;;;;;;;7.65;1.33;;;3.50;99.90;;;;;;5071931;28;20147;-68
2021/12/02 01:41:45;;;;;;;5.25;0.93;;;3.50;99.90;;;;;;5069569;28;20152;-68
2021/12/02 01:44:13;;;;;;;3.53;1.38;;;3.50;99.90;;;;;;5071708;28;20564;-68
2021/12/02 01:46:41;;;;;;;4.65;1.05;;;3.50;99.90;;;;;;5064910;28;20480;-69
2021/12/02 01:49:11;;;;;;;6.57;1.35;;;3.50;99.90;;;;;;5057763;28;20063;-68
2021/12/02 01:51:49;;;;;;;5.28;0.88;;;3.50;99.90;;;;;;5064419;28;20053;-69
2021/12/02 01:54:18;;;;;;;3.15;1.38;;;3.40;99.90;;;;;;5063103;28;20136;-68
2021/12/02 01:56:49;;;;;;;9.57;1.67;;;3.40;99.90;;;;;;5050292;28;20126;-68
2021/12/02 01:59:17;;;;;;;8.93;0.95;;;3.30;99.90;;;;;;5050158;28;20072;-68
2021/12/02 02:01:48;;;;;;;2.38;0.65;;;3.30;99.90;;;;;;5049023;28;20120;-68
2021/12/02 02:04:15;;;;;;;3.60;0.60;;;3.20;99.90;;;;;;5051448;28;20587;-68
2021/12/02 02:06:54;;;;;;;7.88;0.65;;;3.20;99.90;;;;;;5051305;28;20156;-68
2021/12/02 02:09:19;;;;;;;2.33;0.65;;;3.20;99.90;;;;;;5050578;28;20518;-68
2021/12/02 02:11:45;;;;;;;3.47;0.98;;;3.10;99.90;;;;;;5049902;28;20041;-68
2021/12/02 02:14:11;;;;;;;11.32;2.00;;;3.10;99.90;;;;;;5049843;28;20582;-68
2021/12/02 02:16:38;;;;;;;9.73;1.58;;;3.00;99.90;;;;;;5050375;28;20815;-68
2021/12/02 02:19:05;;;;;;;2.80;0.47;;;3.10;99.90;;;;;;5051353;28;20419;-68
2021/12/02 02:21:34;;;;;;;4.50;1.13;;;3.00;99.90;;;;;;5050808;28;20037;-68
2021/12/02 02:24:01;;;;;;;3.50;0.80;;;3.00;99.90;;;;;;5049308;28;20053;-68
2021/12/02 02:26:30;;;;;;;3.15;0.93;;;3.00;99.90;;;;;;5051224;28;20056;-68
2021/12/02 02:28:57;;;;;;;1.15;0.55;;;2.90;99.90;;;;;;5050869;28;20068;-69
2021/12/02 02:31:24;;;;;;;4.65;0.63;;;2.90;99.90;;;;;;5048807;28;20048;-68
2021/12/02 02:33:53;;;;;;;5.75;1.23;;;2.90;99.90;;;;;;5050581;28;20049;-68
2021/12/02 02:36:22;;;;;;;2.33;0.52;;;2.90;99.90;;;;;;5050926;28;20121;-68
2021/12/02 02:38:55;;;;;;;1.00;0.63;;;2.90;99.90;;;;;;5049886;28;20124;-68
2021/12/02 02:41:27;;;;;;;2.30;0.60;;;2.80;99.90;;;;;;5049396;28;20052;-68
2021/12/02 02:43:59;;;;;;;3.35;0.50;;;2.90;99.90;;;;;;5048570;28;20084;-68
2021/12/02 02:46:28;;;;;;;4.70;0.50;;;2.90;99.90;;;;;;5049510;28;20061;-69
2021/12/02 02:48:54;;;;;;;1.33;0.30;;;2.90;99.90;;;;;;5049211;28;20076;-68
2021/12/02 02:51:20;;;;;;;3.80;0.40;;;3.00;99.90;;;;;;5048641;28;20049;-68
2021/12/02 02:53:51;;;;;;;0.65;0.20;;;3.10;99.90;;;;;;5048830;28;20060;-68
2021/12/02 02:56:18;;;;;;;1.02;0.10;;;3.00;99.90;;;;;;5049144;28;20048;-68
2021/12/02 03:01:31;;;;;;;0.60;0.22;;;3.00;99.90;;;;;;5050539;28;20045;-68
2021/12/02 03:08:59;;;;;;;0.52;0.10;;;3.00;99.90;;;;;;5048808;28;20131;-69
2021/12/02 03:11:28;;;;;;;0.17;0.15;;;2.90;99.90;;;;;;5050529;28;20052;-68
2021/12/02 03:13:54;;;;;;;0.10;0.10;;;2.90;99.90;;;;;;5048645;28;20713;-69
2021/12/02 03:16:37;;;;;;;0.25;0.08;;;2.80;99.90;;;;;;5050397;28;20132;-68
2021/12/02 03:19:03;;;;;;;;;;;2.70;99.90;;;;;;5050050;28;20175;-68
2021/12/02 03:21:29;;;;;;;1.92;0.20;;;2.60;99.90;;;;;;5050067;28;20048;-68
2021/12/02 03:23:58;;;;;;;0.10;0.00;;;2.50;99.90;;;;;;5050325;28;20056;-68
2021/12/02 03:26:24;;;;;;;0.20;0.20;;;2.40;99.90;;;;;;5049475;28;20049;-68
2021/12/02 03:28:51;;;;;;;2.30;0.45;;;2.30;99.90;;;;;;5049867;28;20048;-69
2021/12/02 03:31:18;;;;;;;0.43;0.10;;;2.20;99.90;;;;;;5050108;28;20060;-68
2021/12/02 03:33:44;;;;;;;0.20;0.20;;;2.20;99.90;;;;;;5049477;28;20049;-68
2021/12/02 03:36:11;;;;;;;6.75;0.20;;;2.10;99.90;;;;;;5048782;28;20380;-68
2021/12/02 03:38:37;;;;;;;1.15;0.10;;;2.10;99.90;;;;;;5048317;28;20091;-69
2021/12/02 03:41:04;;;;;;;0.40;0.38;;;2.10;99.90;;;;;;5049290;28;20137;-68
2021/12/02 03:43:37;;;;;;;0.43;0.10;;;2.00;99.90;;;;;;5049515;28;20064;-69
2021/12/02 03:46:04;;;;;;;0.17;0.10;;;1.90;99.90;;;;;;5052635;28;20546;-68
2021/12/02 03:48:30;;;;;;;1.95;0.20;;;1.90;99.90;;;;;;5051845;28;20124;-68
2021/12/02 03:50:56;;;;;;;3.05;0.20;;;1.80;99.90;;;;;;5052740;28;20562;-68
2021/12/02 03:53:21;;;;;;;1.75;0.28;;;1.70;99.90;;;;;;5054147;28;20503;-68
2021/12/02 03:55:48;;;;;;;3.55;0.68;;;1.70;99.90;;;;;;5051707;28;20615;-68
2021/12/02 03:58:14;;;;;;;1.75;0.52;;;1.70;99.90;;;;;;5052450;28;20479;-68
2021/12/02 04:00:40;;;;;;;1.05;0.45;;;1.60;99.90;;;;;;5053387;28;20068;-68
2021/12/02 04:03:06;;;;;;;0.08;0.00;;;1.60;99.90;;;;;;5053142;28;20449;-68
2021/12/02 04:05:31;;;;;;;0.82;0.13;;;1.60;99.90;;;;;;5052019;28;20063;-68
2021/12/02 04:07:57;;;;;;;0.30;0.30;;;1.60;99.90;;;;;;5052813;28;20402;-68
2021/12/02 04:10:24;;;;;;;0.55;0.17;;;1.60;99.90;;;;;;5053654;28;20053;-68
2021/12/02 04:15:37;;;;;;;0.90;0.52;;;1.60;99.90;;;;;;5052852;28;20096;-68
2021/12/02 04:18:03;;;;;;;2.85;0.28;;;1.60;99.90;;;;;;5053642;28;20084;-68
2021/12/02 04:20:28;;;;;;;0.77;0.30;;;1.60;99.90;;;;;;5052191;28;20080;-68
2021/12/02 04:22:58;;;;;;;0.85;0.20;;;1.70;99.90;;;;;;5052684;28;20102;-68
2021/12/02 04:25:25;;;;;;;0.50;0.10;;;1.70;99.90;;;;;;5053289;28;20095;-68
2021/12/02 04:27:52;;;;;;;0.60;0.30;;;1.70;99.90;;;;;;5053070;28;20545;-68
2021/12/02 04:30:23;;;;;;;3.78;0.75;;;1.70;99.90;;;;;;5051426;28;20483;-68
2021/12/02 04:32:50;;;;;;;3.67;0.67;;;1.80;99.90;;;;;;5053012;28;20404;-68
2021/12/02 04:35:16;;;;;;;0.13;0.10;;;1.90;99.90;;;;;;5051871;28;20045;-68
2021/12/02 04:37:45;;;;;;;2.72;0.40;;;1.90;99.90;;;;;;5052123;28;20391;-67
2021/12/02 04:40:18;;;;;;;1.73;0.20;;;2.00;99.90;;;;;;5052939;28;20141;-68
2021/12/02 04:42:45;;;;;;;5.00;0.50;;;2.10;99.90;;;;;;5052859;28;20037;-67
2021/12/02 04:45:12;;;;;;;0.00;0.00;;;2.10;99.90;;;;;;5050905;28;20057;-68
2021/12/02 04:47:38;;;;;;;5.25;0.77;;;2.10;99.90;;;;;;5051215;28;20049;-67
2021/12/02 04:50:08;;;;;;;3.05;0.32;;;2.20;99.90;;;;;;5052167;28;20049;-67
2021/12/02 04:52:34;;;;;;;2.05;0.50;;;2.30;99.90;;;;;;5052535;28;20409;-68
2021/12/02 04:55:00;;;;;;;4.93;0.85;;;2.30;99.90;;;;;;5052172;28;20041;-68
2021/12/02 04:57:25;;;;;;;0.88;0.22;;;2.30;99.90;;;;;;5052077;28;20037;-68
2021/12/02 04:59:51;;;;;;;0.98;0.40;;;2.40;99.90;;;;;;5052477;28;20048;-68
2021/12/02 05:02:16;;;;;;;1.83;0.70;;;2.40;99.90;;;;;;5052660;28;20127;-68
2021/12/02 05:04:42;;;;;;;0.47;0.28;;;2.40;99.90;;;;;;5051674;28;20053;-68
2021/12/02 05:07:07;;;;;;;1.35;0.20;;;2.40;99.90;;;;;;5051256;28;20045;-68
2021/12/02 05:09:33;;;;;;;4.68;0.50;;;2.40;99.90;;;;;;5052161;28;20585;-68
2021/12/02 05:11:59;;;;;;;1.55;0.40;;;2.50;99.90;;;;;;5059183;28;20060;-68
2021/12/02 05:14:24;;;;;;;4.10;0.40;;;2.50;99.90;;;;;;5054155;28;20450;-68
2021/12/02 05:16:50;;;;;;;5.13;0.30;;;2.40;99.90;;;;;;5063039;28;20052;-68
2021/12/02 05:19:15;;;;;;;1.20;0.20;;;2.50;99.90;;;;;;5070266;28;20049;-68
2021/12/02 05:21:41;;;;;;;0.38;0.13;;;2.40;99.90;;;;;;5060455;28;20082;-68
2021/12/02 05:24:07;;;;;;;0.22;0.10;;;2.40;99.90;;;;;;5053902;28;20072;-68
2021/12/02 05:26:33;;;;;;;0.55;0.15;;;2.30;99.90;;;;;;5064463;28;20041;-68
2021/12/02 05:28:59;;;;;;;0.38;0.10;;;2.20;99.90;;;;;;5057229;28;20376;-68
2021/12/02 05:31:25;;;;;;;1.25;0.30;;;2.10;99.90;;;;;;5063153;28;20072;-69
2021/12/02 05:33:50;;;;;;;2.47;0.43;;;2.10;99.90;;;;;;5051031;28;20140;-68
2021/12/02 05:36:16;;;;;;;3.75;0.65;;;2.00;99.90;;;;;;5045662;28;20045;-69
2021/12/02 05:38:42;;;;;;;0.65;0.40;;;2.00;99.90;;;;;;5059930;28;20049;-68
2021/12/02 05:41:07;;;;;;;1.55;0.20;;;2.00;99.90;;;;;;5062253;28;20427;-68
2021/12/02 05:43:33;;;;;;;1.75;0.43;;;1.90;99.90;;;;;;5051726;28;20055;-69
2021/12/02 05:45:59;;;;;;;2.40;0.30;;;2.00;99.90;;;;;;5050419;28;20549;-68
2021/12/02 05:48:25;;;;;;;0.85;0.50;;;1.90;99.90;;;;;;5060578;28;20052;-69
2021/12/02 05:50:50;;;;;;;1.85;0.20;;;2.00;99.90;;;;;;5071105;28;20064;-68
2021/12/02 05:53:17;;;;;;;4.32;0.80;;;2.00;99.90;;;;;;5070295;28;20083;-69
2021/12/02 05:55:43;;;;;;;0.73;0.20;;;2.00;99.90;;;;;;5059475;28;20059;-68
2021/12/02 05:58:11;;;;;;;1.33;0.17;;;2.10;99.90;;;;;;5067538;28;20487;-68
2021/12/02 06:00:37;;;;;;;1.15;0.30;;;2.00;99.90;;;;;;5058446;28;20053;-68
2021/12/02 06:03:03;;;;;;;0.20;0.20;;;2.10;99.90;;;;;;5055780;28;20064;-69
2021/12/02 06:05:29;;;;;;;2.03;0.38;;;2.10;99.90;;;;;;5063417;28;20045;-69
2021/12/02 06:07:58;;;;;;;0.90;0.15;;;2.10;99.90;;;;;;5062596;28;20048;-69
2021/12/02 06:10:24;;;;;;;0.88;0.55;;;2.10;99.90;;;;;;5051472;28;20076;-69
2021/12/02 06:12:50;;;;;;;2.33;0.65;;;2.20;99.90;;;;;;5049184;28;20053;-69
2021/12/02 06:15:16;;;;;;;1.33;0.70;;;2.20;99.90;;;;;;5050567;28;20044;-68
2021/12/02 06:17:43;;;;;;;2.38;0.25;;;2.20;99.90;;;;;;5050933;28;20059;-68
2021/12/02 06:20:10;;;;;;;1.88;0.70;;;2.30;99.90;;;;;;5051023;28;20164;-68
2021/12/02 06:22:36;;;;;;;4.45;0.20;;;2.30;99.90;;;;;;5050393;28;20045;-68
2021/12/02 06:27:45;;;;;;;0.93;0.45;;;2.30;99.90;;;;;;5050858;28;20064;-68
2021/12/02 06:30:13;;;;;;;2.10;0.35;;;2.30;99.90;;;;;;5048979;28;20044;-68
2021/12/02 06:32:39;;;;;;;3.10;0.10;;;2.30;99.90;;;;;;5050546;28;20053;-68
2021/12/02 06:35:06;;;;;;;3.78;0.57;;;2.20;99.90;;;;;;5050826;28;20056;-68
2021/12/02 06:37:32;;;;;;;2.47;0.40;;;2.20;99.90;;;;;;5050139;28;20099;-68
2021/12/02 06:39:57;;;;;;;0.32;0.32;;;2.20;99.90;;;;;;5049484;28;20518;-68
2021/12/02 06:42:23;;;;;;;0.38;0.22;;;2.20;99.90;;;;;;5048846;28;20086;-67
2021/12/02 06:44:49;;;;;;;1.05;0.20;;;2.20;99.90;;;;;;5049853;28;20056;-68
2021/12/02 06:47:14;;;;;;;0.85;0.10;;;2.20;99.90;;;;;;5049251;28;20061;-68
2021/12/02 06:49:40;;;;;;;2.33;0.10;;;2.20;99.90;;;;;;5049645;28;20376;-68
2021/12/02 06:52:11;;;;;;;0.85;0.32;;;2.30;99.90;;;;;;5061221;28;20064;-68
2021/12/02 06:54:37;;;;;;;0.35;0.00;;;2.20;99.90;;;;;;5060797;28;20537;-68
2021/12/02 06:57:03;;;;;;;3.60;0.55;;;2.20;99.90;;;;;;5068452;28;20074;-68
2021/12/02 06:59:28;;;;;;;3.58;0.40;;;2.20;99.90;;;;;;5068687;28;20487;-69
2021/12/02 07:01:55;;;;;;;1.95;0.40;;;2.20;99.90;;;;;;5069324;28;20036;-68
2021/12/02 07:04:21;;;;;;;0.20;0.20;;;2.20;99.90;;;;;;5045640;28;20163;-68
2021/12/02 07:06:46;;;;;;;0.93;0.73;;;2.20;99.90;;;;;;5064712;28;20124;-68
2021/12/02 07:09:12;;;;;;;1.45;0.30;;;2.20;99.90;;;;;;5052314;28;20044;-68
2021/12/02 07:11:38;;;;;;;0.93;0.50;;;2.10;99.90;;;;;;5052148;28;20049;-68
2021/12/02 07:14:08;;;;;;;58.75;5.60;;;2.10;99.90;;;;;;5064443;28;20059;-68
2021/12/02 07:16:34;;;;;;;6.18;1.10;;;2.00;99.90;;;;;;5058742;28;20049;-68
2021/12/02 07:19:07;;;;;;;0.40;0.30;;;2.00;99.90;;;;;;5057320;28;20060;-68
2021/12/02 07:21:36;;;;;;;2.45;0.30;;;2.00;99.90;;;;;;5068780;28;20150;-68
2021/12/02 07:24:02;;;;;;;1.00;0.63;;;2.00;99.90;;;;;;5054899;28;20049;-68
2021/12/02 07:26:28;;;;;;;0.73;0.35;;;2.00;99.90;;;;;;5053289;28;20053;-68
2021/12/02 07:28:54;;;;;;;3.55;0.63;;;2.00;99.90;;;;;;5065045;28;20135;-68
2021/12/02 07:31:21;;;;;;;0.93;0.57;;;2.00;99.90;;;;;;5048845;28;20056;-68
2021/12/02 07:33:50;;;;;;;2.80;0.43;;;2.10;99.90;;;;;;5047987;28;20056;-68
2021/12/02 07:36:18;;;;;;;2.20;0.50;;;2.10;99.90;;;;;;5065457;28;20045;-68
2021/12/02 07:38:44;;;;;;;3.67;0.70;;;2.10;99.90;;;;;;5059178;28;20791;-68
2021/12/02 07:41:10;;;;;;;1.13;0.25;;;2.00;99.90;;;;;;5049083;28;20077;-68
2021/12/02 07:43:38;;;;;;;3.90;0.63;;;2.00;99.90;;;;;;5069155;28;20079;-68
2021/12/02 07:46:05;;;;;;;2.55;1.05;;;2.00;99.90;;;;;;5047089;28;20085;-68
2021/12/02 07:48:31;;;;;;;2.88;1.38;;;2.00;99.90;;;;;;5060059;28;20537;-68
2021/12/02 07:51:01;;;;;;;2.25;1.10;;;1.90;99.90;;;;;;5056004;28;20060;-68
2021/12/02 07:53:28;;;;;;;5.00;1.38;;;1.90;99.90;;;;;;5060187;28;20053;-68
2021/12/02 07:55:55;;;;;;;1.98;1.27;;;1.90;99.90;;;;;;5069861;28;20045;-68
2021/12/02 07:58:22;;;;;;;3.05;1.10;;;1.90;99.90;;;;;;5068680;28;20036;-68
2021/12/02 08:00:49;;;;;;;1.25;0.93;;;1.80;99.90;;;;;;5045971;28;20051;-68
2021/12/02 08:03:15;;;;;;;2.10;1.45;;;1.80;99.90;;;;;;5052283;28;20140;-68
2021/12/02 08:05:42;;;;;;;1.85;1.52;;;1.80;99.90;;;;;;5057554;28;20131;-68
2021/12/02 08:08:08;;;;;;;4.25;1.90;;;1.80;99.90;;;;;;5060302;28;20115;-68
2021/12/02 08:10:35;;;;;;;246.48;32.25;;;1.80;99.90;;;;;;5053944;28;20041;-68
2021/12/02 08:13:02;;;;;;;1.05;0.95;;;1.80;99.90;;;;;;5061218;28;20087;-68
2021/12/02 08:15:30;;;;;;;3.20;1.15;;;1.80;99.90;;;;;;5049195;28;20116;-68
2021/12/02 08:17:57;;;;;;;4.22;1.15;;;1.90;99.90;;;;;;5059769;28;20487;-68
2021/12/02 08:20:24;;;;;;;1.98;1.00;;;2.00;99.90;;;;;;5052033;28;20494;-68
2021/12/02 08:22:50;;;;;;;2.33;0.80;;;2.00;99.90;;;;;;5048716;28;20507;-69
2021/12/02 08:25:16;;;;;;;2.60;1.13;;;2.00;99.90;;;;;;5047855;28;20038;-69
2021/12/02 08:27:42;;;;;;;4.07;1.17;;;2.10;99.90;;;;;;5056607;28;20053;-68
2021/12/02 08:30:11;;;;;;;3.45;1.50;;;2.20;99.90;;;;;;5051411;28;20392;-68
2021/12/02 08:32:40;;;;;;;1.88;0.88;;;2.30;99.90;;;;;;5035197;28;21108;-69
2021/12/02 08:35:06;;;;;;;3.53;1.10;;;2.30;99.90;;;;;;5058787;28;20059;-68
2021/12/02 08:37:34;;;;;;;1.80;0.77;;;2.30;99.90;;;;;;5055027;28;20400;-69
2021/12/02 08:40:01;;;;;;;1.48;0.70;;;2.30;99.90;;;;;;5060609;28;20040;-68
2021/12/02 08:42:32;;;;;;;3.13;0.80;;;2.40;99.90;;;;;;5061587;28;20191;-69
2021/12/02 08:44:58;;;;;;;1.85;0.70;;;2.40;99.90;;;;;;5053439;28;20392;-72
2021/12/02 08:47:27;;;;;;;4.25;0.95;;;2.40;99.90;;;;;;5065998;28;20047;-69
2021/12/02 08:49:53;;;;;;;1.80;0.63;;;2.40;99.90;;;;;;5068090;28;20101;-69
2021/12/02 08:52:24;;;;;;;1.52;0.47;;;2.30;99.90;;;;;;5053649;28;20088;-69
2021/12/02 08:54:51;;;;;;;0.73;0.43;;;2.20;99.90;;;;;;5052011;28;20063;-69
2021/12/02 08:57:21;;;;;;;1.85;0.52;;;2.20;99.90;;;;;;5052993;28;20645;-69
2021/12/02 08:59:49;;;;;;;1.85;0.75;;;2.20;99.90;;;;;;5053314;28;20624;-70
2021/12/02 09:02:15;;;;;;;0.88;0.55;;;2.10;99.90;;;;;;5052261;28;20068;-68
2021/12/02 09:04:41;;;;;;;6.30;0.65;;;2.10;99.90;;;;;;5057559;28;20053;-70
2021/12/02 09:07:07;;;;;;;4.38;0.43;;;2.20;99.90;;;;;;5073528;28;20086;-67
2021/12/02 09:09:34;;;;;;;2.85;0.63;;;2.20;99.90;;;;;;5073037;28;20036;-68
2021/12/02 09:12:00;;;;;;;1.15;0.40;;;2.20;99.90;;;;;;5072527;28;20044;-65
2021/12/02 09:14:25;;;;;;;2.35;0.63;;;2.30;99.90;;;;;;5073335;28;20433;-67
2021/12/02 09:16:51;;;;;;;3.40;0.55;;;2.30;99.90;;;;;;5051902;28;20068;-65
2021/12/02 09:19:20;;;;;;;1.30;0.40;;;2.30;99.90;;;;;;5031750;28;20045;-66
2021/12/02 09:21:46;;;;;;;1.05;0.30;;;2.20;99.90;;;;;;5049159;28;20048;-66
2021/12/02 09:24:18;;;;;;;5.30;1.33;;;2.30;99.90;;;;;;5071142;28;20090;-67
2021/12/02 09:26:44;;;;;;;4.43;0.80;;;2.30;99.90;;;;;;5071589;28;20044;-67
2021/12/02 09:29:09;;;;;;;0.60;0.40;;;2.30;99.90;;;;;;5072256;28;20573;-67
2021/12/02 09:31:35;;;;;;;25.63;12.10;;;2.30;99.90;;;;;;5061172;28;20128;-67
2021/12/02 09:34:00;;;;;;;10.60;5.20;;;2.40;99.90;;;;;;5040310;28;20401;-67
2021/12/02 09:36:26;;;;;;;8.52;4.30;;;2.50;99.90;;;;;;5031594;28;20079;-65
2021/12/02 09:38:52;;;;;;;5.05;1.83;;;2.60;99.90;;;;;;5051409;28;20080;-66
2021/12/02 09:41:17;;;;;;;2.33;1.13;;;2.80;99.90;;;;;;5056094;28;20052;-65
2021/12/02 09:43:43;;;;;;;10.93;2.78;;;2.80;99.90;;;;;;5069018;28;20539;-65
2021/12/02 09:46:09;;;;;;;3.58;2.17;;;3.00;99.90;;;;;;5070769;28;20050;-65
2021/12/02 09:48:35;;;;;;;2.78;1.45;;;3.00;99.90;;;;;;5046877;28;20053;-65
2021/12/02 09:51:11;;;;;;;1.15;0.70;;;3.00;99.90;;;;;;5030207;28;20108;-65
2021/12/02 09:53:56;;;;;;;1.45;0.35;;;2.90;99.90;;;;;;5043023;28;20060;-65
2021/12/02 09:56:26;;;;;;;1.35;0.73;;;2.90;99.90;;;;;;5051763;28;20046;-65
2021/12/02 09:58:56;;;;;;;2.03;0.20;;;2.80;99.90;;;;;;5051442;28;20157;-67
2021/12/02 10:04:18;;;;;;;0.25;0.10;;;2.70;99.90;;;;;;5041063;28;20061;-67
2021/12/02 10:06:45;;;;;;;4.28;0.63;;;2.60;99.90;;;;;;5068334;28;20048;-67
2021/12/02 10:09:27;;;;;;;0.17;0.17;;;2.60;99.90;;;;;;5069937;28;20052;-67
2021/12/02 10:11:56;;;;;;;0.47;0.45;;;2.60;99.90;;;;;;5069888;28;20052;-67
2021/12/02 10:14:39;;;;;;;0.82;0.30;;;2.60;99.90;;;;;;5069218;28;20475;-67
2021/12/02 10:17:13;;;;;;;0.38;0.32;;;2.60;99.90;;;;;;5071466;28;20044;-67
2021/12/02 10:20:10;;;;;;;0.47;0.45;;;2.50;99.90;;;;;;5042971;28;20519;-69
2021/12/02 10:22:36;;;;;;;0.28;0.20;;;2.40;99.90;;;;;;5030632;28;20045;-66
2021/12/02 10:25:03;;;;;;;0.73;0.35;;;2.40;99.90;;;;;;5031582;28;20059;-66
2021/12/02 10:27:28;;;;;;;1.95;0.30;;;2.40;99.90;;;;;;5029504;28;20052;-66
2021/12/02 10:29:54;;;;;;;0.43;0.10;;;2.40;99.90;;;;;;5044400;28;20061;-66
2021/12/02 10:32:25;;;;;;;2.20;0.50;;;2.30;99.90;;;;;;5058837;28;20048;-66
2021/12/02 10:34:55;;;;;;;1.67;0.20;;;2.30;99.90;;;;;;5068298;28;20051;-66
2021/12/02 10:37:29;;;;;;;0.57;0.35;;;2.30;99.90;;;;;;5070331;28;20090;-66
2021/12/02 10:40:00;;;;;;;1.45;0.20;;;2.30;99.90;;;;;;5068754;28;20122;-66
2021/12/02 10:42:26;;;;;;;1.10;0.30;;;2.20;99.90;;;;;;5070476;28;20442;-67
2021/12/02 10:44:54;;;;;;;2.80;0.65;;;2.30;99.90;;;;;;5070999;28;20054;-66
2021/12/02 10:47:22;;;;;;;0.47;0.22;;;2.30;99.90;;;;;;5070218;28;20047;-67
2021/12/02 10:49:52;;;;;;;0.28;0.28;;;2.20;99.90;;;;;;5069696;28;20410;-66
2021/12/02 10:52:23;;;;;;;0.88;0.52;;;2.20;99.90;;;;;;5069176;28;20052;-67
2021/12/02 10:54:57;;;;;;;1.48;0.75;;;2.20;99.90;;;;;;5070611;28;20059;-67
2021/12/02 10:57:26;;;;;;;3.30;0.60;;;2.20;99.90;;;;;;5070885;28;20036;-66
2021/12/02 10:59:57;;;;;;;0.52;0.50;;;2.20;99.90;;;;;;5071051;28;20041;-66
2021/12/02 11:02:32;;;;;;;0.85;0.60;;;2.20;99.90;;;;;;5071479;28;20047;-66
2021/12/02 11:05:00;;;;;;;0.50;0.50;;;2.30;99.90;;;;;;5069655;28;20076;-66
2021/12/02 11:07:40;;;;;;;0.75;0.43;;;2.20;99.90;;;;;;5069807;28;20090;-67
2021/12/02 11:10:16;;;;;;;0.88;0.40;;;2.20;99.90;;;;;;5070220;28;20052;-66
2021/12/02 11:12:44;;;;;;;1.15;0.40;;;2.20;99.90;;;;;;5070935;28;20041;-66
2021/12/02 11:15:21;;;;;;;0.30;0.20;;;2.10;99.90;;;;;;5069742;28;20519;-67
2021/12/02 11:17:49;;;;;;;1.60;0.47;;;2.10;99.90;;;;;;5068550;28;20052;-66
2021/12/02 11:20:22;;;;;;;0.88;0.52;;;2.00;99.90;;;;;;5069492;28;20452;-66
2021/12/02 11:22:53;;;;;;;1.20;0.50;;;2.00;99.90;;;;;;5055063;28;20493;-66
2021/12/02 11:25:19;;;;;;;0.80;0.25;;;1.90;99.90;;;;;;5054449;28;20497;-65
2021/12/02 11:27:48;;;;;;;0.47;0.30;;;1.90;99.90;;;;;;5059600;28;20048;-66
2021/12/02 11:30:18;;;;;;;4.70;0.63;;;1.90;99.90;;;;;;5046718;28;20415;-66
2021/12/02 11:32:47;;;;;;;0.65;0.38;;;1.80;99.90;;;;;;5045279;28;20132;-66
2021/12/02 11:35:12;;;;;;;4.40;0.20;;;1.70;99.90;;;;;;5040590;28;20041;-66
2021/12/02 11:37:40;;;;;;;0.68;0.55;;;1.70;99.90;;;;;;5047365;28;20110;-66
2021/12/02 11:40:13;;;;;;;0.77;0.15;;;1.70;99.90;;;;;;5036169;28;20529;-67
2021/12/02 11:42:39;;;;;;;1.05;0.20;;;1.70;99.90;;;;;;5031729;28;20140;-66
2021/12/02 11:45:07;;;;;;;0.77;0.20;;;1.80;99.90;;;;;;5043273;28;20136;-66
2021/12/02 11:47:34;;;;;;;0.60;0.20;;;1.60;99.90;;;;;;5052586;28;20048;-66
2021/12/02 11:50:00;;;;;;;1.02;0.10;;;1.70;99.90;;;;;;5037060;28;20164;-66
2021/12/02 11:52:26;;;;;;;0.10;0.10;;;1.60;99.90;;;;;;5031379;28;20132;-66
2021/12/02 11:54:52;;;;;;;0.20;0.20;;;1.60;99.90;;;;;;5047902;28;20075;-66
2021/12/02 11:57:19;;;;;;;0.77;0.10;;;1.60;99.90;;;;;;5053542;28;20040;-68
2021/12/02 11:59:45;;;;;;;0.28;0.20;;;1.60;99.90;;;;;;5049924;28;20045;-67
2021/12/02 12:02:15;;;;;;;0.15;0.08;;;1.70;99.90;;;;;;5050704;28;20044;-66
2021/12/02 12:04:41;;;;;;;0.10;0.08;;;1.80;99.90;;;;;;5045715;28;20107;-67
2021/12/02 12:07:16;;;;;;;0.22;0.13;;;2.10;99.90;;;;;;5041592;28;20434;-68
2021/12/02 12:09:41;;;;;;;2.28;0.25;;;2.20;99.90;;;;;;5046031;28;20098;-68
2021/12/02 12:12:07;;;;;;;2.35;0.75;;;2.40;99.90;;;;;;5048412;28;20042;-68
2021/12/02 12:14:39;;;;;;;0.70;0.50;;;2.50;99.90;;;;;;5040811;28;20053;-68
2021/12/02 12:17:10;;;;;;;1.90;0.85;;;2.70;99.90;;;;;;5045172;28;20053;-67
2021/12/02 12:19:43;;;;;;;1.27;0.52;;;2.90;99.90;;;;;;5046935;28;20063;-68
2021/12/02 12:22:13;;;;;;;0.55;0.40;;;2.90;99.90;;;;;;5038339;28;20050;-67
2021/12/02 12:24:51;;;;;;;0.70;0.30;;;2.90;99.90;;;;;;5042926;28;20037;-68
2021/12/02 12:27:20;;;;;;;2.28;0.73;;;2.70;99.90;;;;;;5042722;28;20057;-68
2021/12/02 12:30:10;;;;;;;0.52;0.10;;;2.60;99.90;;;;;;5050471;28;21020;-68
2021/12/02 12:38:42;;;;;;;0.65;0.20;;;2.40;99.90;;;;;;5017512;28;20508;-66
2021/12/02 12:41:13;;;;;;;0.52;0.25;;;2.50;99.90;;;;;;5016070;28;20061;-66
2021/12/02 12:43:54;;;;;;;0.93;0.30;;;2.50;99.90;;;;;;5031249;28;20124;-66
2021/12/02 12:46:28;;;;;;;1.25;0.38;;;2.60;99.90;;;;;;5032353;28;20061;-66
2021/12/02 12:48:56;;;;;;;0.73;0.03;;;2.70;99.90;;;;;;5037350;28;20388;-66
2021/12/02 12:51:35;;;;;;;6.50;0.32;;;2.70;99.90;;;;;;5051786;28;20049;-66
2021/12/02 12:54:05;;;;;;;0.88;0.47;;;2.80;99.90;;;;;;5046320;28;20087;-66
2021/12/02 12:56:33;;;;;;;1.35;0.68;;;2.80;99.90;;;;;;5044950;28;20036;-66
2021/12/02 12:59:14;;;;;;;1.30;0.20;;;2.80;99.90;;;;;;5044313;28;20106;-66
2021/12/02 13:01:54;;;;;;;5.47;0.40;;;2.80;99.90;;;;;;5033574;28;20075;-66
2021/12/02 13:04:23;;;;;;;1.00;0.32;;;2.80;99.90;;;;;;5067713;28;20128;-66
2021/12/02 13:06:52;;;;;;;0.85;0.20;;;2.80;99.90;;;;;;5072970;28;20209;-66
2021/12/02 13:09:37;;;;;;;1.55;0.20;;;2.80;99.90;;;;;;5071847;28;20597;-66
2021/12/02 13:12:04;;;;;;;0.47;0.35;;;2.80;99.90;;;;;;5067535;28;20060;-66
2021/12/02 13:14:30;;;;;;;0.77;0.22;;;2.80;99.90;;;;;;5051472;28;20037;-66
2021/12/02 13:16:56;;;;;;;1.55;0.43;;;2.80;99.90;;;;;;5032954;28;20037;-66
2021/12/02 13:19:22;;;;;;;0.20;0.10;;;2.90;99.90;;;;;;5032009;28;20077;-66
2021/12/02 13:21:58;;;;;;;0.30;0.25;;;3.00;99.90;;;;;;5064720;28;20565;-66
2021/12/02 13:24:33;;;;;;;2.72;0.45;;;3.10;99.90;;;;;;5072417;28;20469;-66
2021/12/02 13:27:02;;;;;;;1.02;0.30;;;3.20;99.90;;;;;;5063479;28;20048;-66